sensor_id;sensor_type;location;lat;lon;timestamp;P1;durP1;ratioP1;P2;durP2;ratioP2
3629;SDS011;1831;53.626;10.012;2022-08-24T00:00:53;7.53;;;3.07;;
3629;SDS011;1831;53.626;10.012;2022-08-24T00:03:22;8.43;;;5.10;;
3629;SDS011;1831;53.626;10.012;2022-08-24T00:05:49;10.43;;;5.47;;
3629;SDS011;1831;53.626;10.012;2022-08-24T00:08:18;7.47;;;2.90;;
3629;SDS011;1831;53.626;10.012;2022-08-24T00:10:45;17.10;;;3.73;;
3629;SDS011;1831;53.626;10.012;2022-08-24T00:13:12;6.43;;;3.17;;
3629;SDS011;1831;53.626;10.012;2022-08-24T00:15:39;14.33;;;9.10;;
3629;SDS011;1831;53.626;10.012;2022-08-24T00:18:06;4.60;;;2.53;;
3629;SDS011;1831;53.626;10.012;2022-08-24T00:20:35;6.07;;;3.33;;
3629;SDS011;1831;53.626;10.012;2022-08-24T00:23:02;8.13;;;3.63;;
3629;SDS011;1831;53.626;10.012;2022-08-24T00:25:29;6.40;;;3.50;;
3629;SDS011;1831;53.626;10.012;2022-08-24T00:27:56;6.50;;;2.67;;
3629;SDS011;1831;53.626;10.012;2022-08-24T00:30:23;4.70;;;2.87;;
3629;SDS011;1831;53.626;10.012;2022-08-24T00:32:50;7.47;;;3.80;;
3629;SDS011;1831;53.626;10.012;2022-08-24T00:35:18;7.60;;;4.20;;
3629;SDS011;1831;53.626;10.012;2022-08-24T00:37:47;5.40;;;3.20;;
3629;SDS011;1831;53.626;10.012;2022-08-24T00:40:17;5.57;;;2.93;;
3629;SDS011;1831;53.626;10.012;2022-08-24T00:42:46;5.73;;;3.50;;
3629;SDS011;1831;53.626;10.012;2022-08-24T00:45:13;7.43;;;4.10;;
3629;SDS011;1831;53.626;10.012;2022-08-24T00:47:42;5.83;;;3.70;;
3629;SDS011;1831;53.626;10.012;2022-08-24T00:50:12;9.03;;;5.03;;
3629;SDS011;1831;53.626;10.012;2022-08-24T00:52:44;5.73;;;3.30;;
3629;SDS011;1831;53.626;10.012;2022-08-24T00:55:16;8.03;;;3.83;;
3629;SDS011;1831;53.626;10.012;2022-08-24T00:57:45;4.47;;;2.50;;
3629;SDS011;1831;53.626;10.012;2022-08-24T01:00:16;6.70;;;3.30;;
3629;SDS011;1831;53.626;10.012;2022-08-24T01:02:47;5.77;;;2.60;;
3629;SDS011;1831;53.626;10.012;2022-08-24T01:05:18;5.83;;;2.87;;
3629;SDS011;1831;53.626;10.012;2022-08-24T01:07:46;5.73;;;2.77;;
3629;SDS011;1831;53.626;10.012;2022-08-24T01:10:19;7.80;;;3.00;;
3629;SDS011;1831;53.626;10.012;2022-08-24T01:12:51;5.60;;;3.27;;
3629;SDS011;1831;53.626;10.012;2022-08-24T01:15:23;4.90;;;2.57;;
3629;SDS011;1831;53.626;10.012;2022-08-24T01:17:50;6.77;;;3.30;;
3629;SDS011;1831;53.626;10.012;2022-08-24T01:20:35;5.17;;;2.80;;
3629;SDS011;1831;53.626;10.012;2022-08-24T01:23:04;4.90;;;3.37;;
3629;SDS011;1831;53.626;10.012;2022-08-24T01:25:37;7.13;;;3.10;;
3629;SDS011;1831;53.626;10.012;2022-08-24T01:28:09;6.00;;;3.00;;
3629;SDS011;1831;53.626;10.012;2022-08-24T01:30:40;5.47;;;3.43;;
3629;SDS011;1831;53.626;10.012;2022-08-24T01:33:08;5.30;;;2.90;;
3629;SDS011;1831;53.626;10.012;2022-08-24T01:35:36;4.77;;;2.63;;
3629;SDS011;1831;53.626;10.012;2022-08-24T01:38:05;4.97;;;2.50;;
3629;SDS011;1831;53.626;10.012;2022-08-24T01:40:34;4.73;;;2.97;;
3629;SDS011;1831;53.626;10.012;2022-08-24T01:43:05;5.90;;;2.67;;
3629;SDS011;1831;53.626;10.012;2022-08-24T01:45:33;4.17;;;2.60;;
3629;SDS011;1831;53.626;10.012;2022-08-24T01:48:00;5.50;;;2.93;;
3629;SDS011;1831;53.626;10.012;2022-08-24T01:50:27;4.93;;;3.03;;
3629;SDS011;1831;53.626;10.012;2022-08-24T01:52:56;4.87;;;2.53;;
3629;SDS011;1831;53.626;10.012;2022-08-24T01:55:26;11.30;;;2.80;;
3629;SDS011;1831;53.626;10.012;2022-08-24T01:57:54;5.10;;;2.90;;
3629;SDS011;1831;53.626;10.012;2022-08-24T02:00:22;5.73;;;2.77;;
3629;SDS011;1831;53.626;10.012;2022-08-24T02:02:49;6.73;;;2.93;;
3629;SDS011;1831;53.626;10.012;2022-08-24T02:05:16;4.40;;;2.80;;
3629;SDS011;1831;53.626;10.012;2022-08-24T02:07:43;4.90;;;3.33;;
3629;SDS011;1831;53.626;10.012;2022-08-24T02:10:12;6.90;;;3.30;;
3629;SDS011;1831;53.626;10.012;2022-08-24T02:12:40;5.40;;;3.20;;
3629;SDS011;1831;53.626;10.012;2022-08-24T02:15:11;7.60;;;3.13;;
3629;SDS011;1831;53.626;10.012;2022-08-24T02:17:38;7.10;;;3.10;;
3629;SDS011;1831;53.626;10.012;2022-08-24T02:20:06;7.53;;;3.10;;
3629;SDS011;1831;53.626;10.012;2022-08-24T02:22:34;6.20;;;3.40;;
3629;SDS011;1831;53.626;10.012;2022-08-24T02:25:02;6.67;;;3.53;;
3629;SDS011;1831;53.626;10.012;2022-08-24T02:27:29;6.10;;;3.30;;
3629;SDS011;1831;53.626;10.012;2022-08-24T02:29:56;6.13;;;3.03;;
3629;SDS011;1831;53.626;10.012;2022-08-24T02:32:24;4.60;;;3.10;;
3629;SDS011;1831;53.626;10.012;2022-08-24T02:34:51;16.40;;;3.50;;
3629;SDS011;1831;53.626;10.012;2022-08-24T02:37:18;5.50;;;3.30;;
3629;SDS011;1831;53.626;10.012;2022-08-24T02:39:45;6.60;;;3.63;;
3629;SDS011;1831;53.626;10.012;2022-08-24T02:42:11;10.13;;;3.53;;
3629;SDS011;1831;53.626;10.012;2022-08-24T02:44:39;7.13;;;4.63;;
3629;SDS011;1831;53.626;10.012;2022-08-24T02:47:06;11.87;;;7.70;;
3629;SDS011;1831;53.626;10.012;2022-08-24T02:49:35;9.33;;;5.57;;
3629;SDS011;1831;53.626;10.012;2022-08-24T02:52:02;8.27;;;4.13;;
3629;SDS011;1831;53.626;10.012;2022-08-24T02:54:29;6.37;;;3.70;;
3629;SDS011;1831;53.626;10.012;2022-08-24T02:56:56;8.93;;;3.90;;
3629;SDS011;1831;53.626;10.012;2022-08-24T02:59:23;6.40;;;3.30;;
3629;SDS011;1831;53.626;10.012;2022-08-24T03:01:50;6.10;;;3.57;;
3629;SDS011;1831;53.626;10.012;2022-08-24T03:04:17;5.83;;;3.73;;
3629;SDS011;1831;53.626;10.012;2022-08-24T03:06:46;9.60;;;5.47;;
3629;SDS011;1831;53.626;10.012;2022-08-24T03:09:13;17.33;;;9.97;;
3629;SDS011;1831;53.626;10.012;2022-08-24T03:11:41;13.20;;;9.10;;
3629;SDS011;1831;53.626;10.012;2022-08-24T03:14:08;6.83;;;4.70;;
3629;SDS011;1831;53.626;10.012;2022-08-24T03:16:35;7.53;;;3.73;;
3629;SDS011;1831;53.626;10.012;2022-08-24T03:19:02;6.63;;;3.80;;
3629;SDS011;1831;53.626;10.012;2022-08-24T03:21:29;6.63;;;3.40;;
3629;SDS011;1831;53.626;10.012;2022-08-24T03:23:58;4.53;;;3.40;;
3629;SDS011;1831;53.626;10.012;2022-08-24T03:26:25;7.63;;;3.50;;
3629;SDS011;1831;53.626;10.012;2022-08-24T03:28:52;5.67;;;3.27;;
3629;SDS011;1831;53.626;10.012;2022-08-24T03:31:19;8.17;;;3.70;;
3629;SDS011;1831;53.626;10.012;2022-08-24T03:33:46;5.70;;;3.40;;
3629;SDS011;1831;53.626;10.012;2022-08-24T03:36:13;5.07;;;3.20;;
3629;SDS011;1831;53.626;10.012;2022-08-24T03:38:40;5.57;;;3.60;;
3629;SDS011;1831;53.626;10.012;2022-08-24T03:41:08;6.33;;;3.40;;
3629;SDS011;1831;53.626;10.012;2022-08-24T03:43:36;7.90;;;3.80;;
3629;SDS011;1831;53.626;10.012;2022-08-24T03:46:13;6.00;;;3.23;;
3629;SDS011;1831;53.626;10.012;2022-08-24T03:48:41;6.87;;;3.80;;
3629;SDS011;1831;53.626;10.012;2022-08-24T03:51:10;8.30;;;3.30;;
3629;SDS011;1831;53.626;10.012;2022-08-24T03:53:38;8.63;;;3.83;;
3629;SDS011;1831;53.626;10.012;2022-08-24T03:56:05;7.60;;;3.73;;
3629;SDS011;1831;53.626;10.012;2022-08-24T03:58:34;9.80;;;3.80;;
3629;SDS011;1831;53.626;10.012;2022-08-24T04:01:02;8.07;;;4.30;;
3629;SDS011;1831;53.626;10.012;2022-08-24T04:03:29;5.63;;;3.77;;
3629;SDS011;1831;53.626;10.012;2022-08-24T04:05:56;7.40;;;3.83;;
3629;SDS011;1831;53.626;10.012;2022-08-24T04:08:23;6.47;;;4.20;;
3629;SDS011;1831;53.626;10.012;2022-08-24T04:10:49;10.43;;;4.47;;
3629;SDS011;1831;53.626;10.012;2022-08-24T04:13:17;11.13;;;4.77;;
3629;SDS011;1831;53.626;10.012;2022-08-24T04:15:45;5.90;;;4.37;;
3629;SDS011;1831;53.626;10.012;2022-08-24T04:18:14;5.37;;;3.90;;
3629;SDS011;1831;53.626;10.012;2022-08-24T04:20:41;8.33;;;5.03;;
3629;SDS011;1831;53.626;10.012;2022-08-24T04:23:09;7.63;;;4.10;;
3629;SDS011;1831;53.626;10.012;2022-08-24T04:25:41;5.80;;;3.80;;
3629;SDS011;1831;53.626;10.012;2022-08-24T04:28:09;8.13;;;3.90;;
3629;SDS011;1831;53.626;10.012;2022-08-24T04:30:38;5.87;;;4.40;;
3629;SDS011;1831;53.626;10.012;2022-08-24T04:33:08;5.63;;;4.27;;
3629;SDS011;1831;53.626;10.012;2022-08-24T04:35:36;7.67;;;4.63;;
3629;SDS011;1831;53.626;10.012;2022-08-24T04:38:04;8.53;;;5.17;;
3629;SDS011;1831;53.626;10.012;2022-08-24T04:40:31;8.10;;;4.87;;
3629;SDS011;1831;53.626;10.012;2022-08-24T04:42:58;7.07;;;4.27;;
3629;SDS011;1831;53.626;10.012;2022-08-24T04:45:25;7.10;;;4.10;;
3629;SDS011;1831;53.626;10.012;2022-08-24T04:47:53;7.80;;;4.33;;
3629;SDS011;1831;53.626;10.012;2022-08-24T04:50:21;14.43;;;8.30;;
3629;SDS011;1831;53.626;10.012;2022-08-24T04:52:48;7.73;;;4.57;;
3629;SDS011;1831;53.626;10.012;2022-08-24T04:55:15;5.80;;;3.73;;
3629;SDS011;1831;53.626;10.012;2022-08-24T04:57:42;5.40;;;3.80;;
3629;SDS011;1831;53.626;10.012;2022-08-24T05:00:10;9.67;;;5.90;;
3629;SDS011;1831;53.626;10.012;2022-08-24T05:02:37;6.17;;;4.50;;
3629;SDS011;1831;53.626;10.012;2022-08-24T05:05:05;8.93;;;4.70;;
3629;SDS011;1831;53.626;10.012;2022-08-24T05:07:34;8.47;;;5.00;;
3629;SDS011;1831;53.626;10.012;2022-08-24T05:10:01;9.40;;;4.60;;
3629;SDS011;1831;53.626;10.012;2022-08-24T05:12:29;8.57;;;4.03;;
3629;SDS011;1831;53.626;10.012;2022-08-24T05:14:56;10.80;;;5.17;;
3629;SDS011;1831;53.626;10.012;2022-08-24T05:17:23;7.07;;;4.70;;
3629;SDS011;1831;53.626;10.012;2022-08-24T05:19:51;10.50;;;6.03;;
3629;SDS011;1831;53.626;10.012;2022-08-24T05:22:18;7.13;;;4.10;;
3629;SDS011;1831;53.626;10.012;2022-08-24T05:24:47;7.10;;;4.27;;
3629;SDS011;1831;53.626;10.012;2022-08-24T05:27:14;8.57;;;4.70;;
3629;SDS011;1831;53.626;10.012;2022-08-24T05:29:41;6.47;;;4.90;;
3629;SDS011;1831;53.626;10.012;2022-08-24T05:32:08;10.20;;;5.23;;
3629;SDS011;1831;53.626;10.012;2022-08-24T05:34:35;10.43;;;5.30;;
3629;SDS011;1831;53.626;10.012;2022-08-24T05:37:02;7.47;;;4.50;;
3629;SDS011;1831;53.626;10.012;2022-08-24T05:39:29;12.90;;;5.67;;
3629;SDS011;1831;53.626;10.012;2022-08-24T05:41:58;9.73;;;5.20;;
3629;SDS011;1831;53.626;10.012;2022-08-24T05:44:25;13.03;;;4.97;;
3629;SDS011;1831;53.626;10.012;2022-08-24T05:46:54;6.40;;;5.10;;
3629;SDS011;1831;53.626;10.012;2022-08-24T05:49:22;12.20;;;5.60;;
3629;SDS011;1831;53.626;10.012;2022-08-24T05:51:49;7.57;;;4.70;;
3629;SDS011;1831;53.626;10.012;2022-08-24T05:54:16;7.40;;;4.63;;
3629;SDS011;1831;53.626;10.012;2022-08-24T05:56:44;9.10;;;5.00;;
3629;SDS011;1831;53.626;10.012;2022-08-24T05:59:12;7.40;;;4.40;;
3629;SDS011;1831;53.626;10.012;2022-08-24T06:01:42;13.60;;;5.80;;
3629;SDS011;1831;53.626;10.012;2022-08-24T06:04:10;7.30;;;4.80;;
3629;SDS011;1831;53.626;10.012;2022-08-24T06:06:37;8.10;;;4.57;;
3629;SDS011;1831;53.626;10.012;2022-08-24T06:09:18;8.10;;;5.10;;
3629;SDS011;1831;53.626;10.012;2022-08-24T06:11:45;7.97;;;4.70;;
3629;SDS011;1831;53.626;10.012;2022-08-24T06:14:14;9.53;;;4.90;;
3629;SDS011;1831;53.626;10.012;2022-08-24T06:16:43;10.00;;;5.00;;
3629;SDS011;1831;53.626;10.012;2022-08-24T06:19:12;8.13;;;4.60;;
3629;SDS011;1831;53.626;10.012;2022-08-24T06:21:42;8.20;;;5.00;;
3629;SDS011;1831;53.626;10.012;2022-08-24T06:24:10;8.43;;;4.37;;
3629;SDS011;1831;53.626;10.012;2022-08-24T06:26:39;8.37;;;3.90;;
3629;SDS011;1831;53.626;10.012;2022-08-24T06:29:25;11.07;;;4.20;;
3629;SDS011;1831;53.626;10.012;2022-08-24T06:31:52;7.40;;;4.70;;
3629;SDS011;1831;53.626;10.012;2022-08-24T06:34:19;7.00;;;4.73;;
3629;SDS011;1831;53.626;10.012;2022-08-24T06:36:47;8.20;;;4.33;;
3629;SDS011;1831;53.626;10.012;2022-08-24T06:39:14;10.90;;;4.27;;
3629;SDS011;1831;53.626;10.012;2022-08-24T06:41:41;8.10;;;4.50;;
3629;SDS011;1831;53.626;10.012;2022-08-24T06:44:08;12.20;;;5.37;;
3629;SDS011;1831;53.626;10.012;2022-08-24T06:46:37;9.10;;;4.97;;
3629;SDS011;1831;53.626;10.012;2022-08-24T06:49:06;7.03;;;4.70;;
3629;SDS011;1831;53.626;10.012;2022-08-24T06:51:33;7.50;;;4.13;;
3629;SDS011;1831;53.626;10.012;2022-08-24T06:54:00;8.67;;;4.10;;
3629;SDS011;1831;53.626;10.012;2022-08-24T06:56:27;5.83;;;4.10;;
3629;SDS011;1831;53.626;10.012;2022-08-24T06:58:54;9.63;;;4.63;;
3629;SDS011;1831;53.626;10.012;2022-08-24T07:01:22;7.30;;;4.50;;
3629;SDS011;1831;53.626;10.012;2022-08-24T07:03:51;13.53;;;4.30;;
3629;SDS011;1831;53.626;10.012;2022-08-24T07:06:19;6.83;;;4.20;;
3629;SDS011;1831;53.626;10.012;2022-08-24T07:08:46;7.40;;;4.23;;
3629;SDS011;1831;53.626;10.012;2022-08-24T07:11:13;6.50;;;4.27;;
3629;SDS011;1831;53.626;10.012;2022-08-24T07:13:42;11.00;;;4.83;;
3629;SDS011;1831;53.626;10.012;2022-08-24T07:16:10;10.33;;;4.37;;
3629;SDS011;1831;53.626;10.012;2022-08-24T07:18:38;5.87;;;4.07;;
3629;SDS011;1831;53.626;10.012;2022-08-24T07:21:07;11.70;;;4.20;;
3629;SDS011;1831;53.626;10.012;2022-08-24T07:23:35;9.03;;;4.60;;
3629;SDS011;1831;53.626;10.012;2022-08-24T07:26:06;7.10;;;3.97;;
3629;SDS011;1831;53.626;10.012;2022-08-24T07:31:02;8.50;;;4.20;;
3629;SDS011;1831;53.626;10.012;2022-08-24T07:33:30;14.60;;;5.50;;
3629;SDS011;1831;53.626;10.012;2022-08-24T07:35:57;7.97;;;4.43;;
3629;SDS011;1831;53.626;10.012;2022-08-24T07:38:26;7.87;;;4.00;;
3629;SDS011;1831;53.626;10.012;2022-08-24T07:40:54;10.93;;;4.30;;
3629;SDS011;1831;53.626;10.012;2022-08-24T07:43:21;9.27;;;4.30;;
3629;SDS011;1831;53.626;10.012;2022-08-24T07:45:48;7.90;;;4.43;;
3629;SDS011;1831;53.626;10.012;2022-08-24T07:48:15;11.30;;;4.90;;
3629;SDS011;1831;53.626;10.012;2022-08-24T07:50:42;6.20;;;4.00;;
3629;SDS011;1831;53.626;10.012;2022-08-24T07:53:09;6.73;;;5.10;;
3629;SDS011;1831;53.626;10.012;2022-08-24T07:55:40;7.73;;;4.60;;
3629;SDS011;1831;53.626;10.012;2022-08-24T07:58:08;9.13;;;5.00;;
3629;SDS011;1831;53.626;10.012;2022-08-24T08:00:34;11.30;;;4.33;;
3629;SDS011;1831;53.626;10.012;2022-08-24T08:03:01;7.30;;;4.60;;
3629;SDS011;1831;53.626;10.012;2022-08-24T08:05:28;6.77;;;4.50;;
3629;SDS011;1831;53.626;10.012;2022-08-24T08:07:56;10.13;;;5.40;;
3629;SDS011;1831;53.626;10.012;2022-08-24T08:10:22;9.80;;;5.77;;
3629;SDS011;1831;53.626;10.012;2022-08-24T08:12:51;7.20;;;5.20;;
3629;SDS011;1831;53.626;10.012;2022-08-24T08:15:18;8.43;;;4.83;;
3629;SDS011;1831;53.626;10.012;2022-08-24T08:17:45;8.73;;;5.53;;
3629;SDS011;1831;53.626;10.012;2022-08-24T08:20:12;6.83;;;5.00;;
3629;SDS011;1831;53.626;10.012;2022-08-24T08:22:39;7.10;;;4.60;;
3629;SDS011;1831;53.626;10.012;2022-08-24T08:25:23;6.47;;;4.40;;
3629;SDS011;1831;53.626;10.012;2022-08-24T08:27:51;9.47;;;4.37;;
3629;SDS011;1831;53.626;10.012;2022-08-24T08:30:19;5.57;;;3.90;;
3629;SDS011;1831;53.626;10.012;2022-08-24T08:32:46;5.40;;;4.10;;
3629;SDS011;1831;53.626;10.012;2022-08-24T08:35:12;6.70;;;5.17;;
3629;SDS011;1831;53.626;10.012;2022-08-24T08:37:40;8.20;;;5.07;;
3629;SDS011;1831;53.626;10.012;2022-08-24T08:40:08;5.93;;;4.50;;
3629;SDS011;1831;53.626;10.012;2022-08-24T08:42:43;9.40;;;6.00;;
3629;SDS011;1831;53.626;10.012;2022-08-24T08:45:26;7.77;;;4.80;;
3629;SDS011;1831;53.626;10.012;2022-08-24T08:48:08;9.87;;;5.23;;
3629;SDS011;1831;53.626;10.012;2022-08-24T08:51:01;9.87;;;5.80;;
3629;SDS011;1831;53.626;10.012;2022-08-24T08:54:01;11.20;;;5.37;;
3629;SDS011;1831;53.626;10.012;2022-08-24T08:56:39;9.77;;;4.83;;
3629;SDS011;1831;53.626;10.012;2022-08-24T08:59:20;7.63;;;5.33;;
3629;SDS011;1831;53.626;10.012;2022-08-24T09:02:04;8.30;;;4.90;;
3629;SDS011;1831;53.626;10.012;2022-08-24T09:07:42;8.50;;;5.50;;
3629;SDS011;1831;53.626;10.012;2022-08-24T09:10:20;7.47;;;5.27;;
3629;SDS011;1831;53.626;10.012;2022-08-24T09:13:02;8.80;;;5.47;;
3629;SDS011;1831;53.626;10.012;2022-08-24T09:15:46;7.33;;;5.10;;
3629;SDS011;1831;53.626;10.012;2022-08-24T09:18:38;7.90;;;5.03;;
3629;SDS011;1831;53.626;10.012;2022-08-24T09:21:37;9.83;;;5.40;;
3629;SDS011;1831;53.626;10.012;2022-08-24T09:24:19;9.27;;;5.33;;
3629;SDS011;1831;53.626;10.012;2022-08-24T09:27:06;11.33;;;4.80;;
3629;SDS011;1831;53.626;10.012;2022-08-24T09:29:48;7.83;;;5.43;;
3629;SDS011;1831;53.626;10.012;2022-08-24T09:32:31;8.73;;;5.90;;
3629;SDS011;1831;53.626;10.012;2022-08-24T09:35:02;7.20;;;5.40;;
3629;SDS011;1831;53.626;10.012;2022-08-24T09:37:32;9.00;;;5.10;;
3629;SDS011;1831;53.626;10.012;2022-08-24T09:40:16;8.50;;;5.00;;
3629;SDS011;1831;53.626;10.012;2022-08-24T09:46:10;6.77;;;4.90;;
3629;SDS011;1831;53.626;10.012;2022-08-24T09:52:10;8.77;;;5.30;;
3629;SDS011;1831;53.626;10.012;2022-08-24T09:55:12;9.10;;;4.97;;
3629;SDS011;1831;53.626;10.012;2022-08-24T09:58:02;13.90;;;5.37;;
3629;SDS011;1831;53.626;10.012;2022-08-24T10:00:43;8.00;;;4.90;;
3629;SDS011;1831;53.626;10.012;2022-08-24T10:03:26;8.00;;;5.37;;
3629;SDS011;1831;53.626;10.012;2022-08-24T10:06:09;7.30;;;3.80;;
3629;SDS011;1831;53.626;10.012;2022-08-24T10:11:38;7.23;;;4.33;;
3629;SDS011;1831;53.626;10.012;2022-08-24T10:14:15;8.60;;;4.43;;
3629;SDS011;1831;53.626;10.012;2022-08-24T10:17:02;6.43;;;4.73;;
3629;SDS011;1831;53.626;10.012;2022-08-24T10:19:39;6.63;;;4.53;;
3629;SDS011;1831;53.626;10.012;2022-08-24T10:22:15;8.00;;;4.53;;
3629;SDS011;1831;53.626;10.012;2022-08-24T10:24:55;7.40;;;4.77;;
3629;SDS011;1831;53.626;10.012;2022-08-24T10:27:37;6.93;;;4.30;;
3629;SDS011;1831;53.626;10.012;2022-08-24T10:30:30;10.87;;;4.47;;
3629;SDS011;1831;53.626;10.012;2022-08-24T10:33:13;6.83;;;3.93;;
3629;SDS011;1831;53.626;10.012;2022-08-24T10:36:07;5.87;;;4.60;;
3629;SDS011;1831;53.626;10.012;2022-08-24T10:38:47;7.37;;;4.10;;
3629;SDS011;1831;53.626;10.012;2022-08-24T10:41:48;7.50;;;4.23;;
3629;SDS011;1831;53.626;10.012;2022-08-24T10:47:17;11.23;;;4.60;;
3629;SDS011;1831;53.626;10.012;2022-08-24T10:55:44;13.73;;;4.80;;
3629;SDS011;1831;53.626;10.012;2022-08-24T10:58:32;6.20;;;4.63;;
3629;SDS011;1831;53.626;10.012;2022-08-24T11:01:18;8.40;;;4.27;;
3629;SDS011;1831;53.626;10.012;2022-08-24T11:03:53;5.80;;;4.33;;
3629;SDS011;1831;53.626;10.012;2022-08-24T11:06:27;7.87;;;4.70;;
3629;SDS011;1831;53.626;10.012;2022-08-24T11:08:57;7.93;;;4.10;;
3629;SDS011;1831;53.626;10.012;2022-08-24T11:11:30;8.03;;;4.40;;
3629;SDS011;1831;53.626;10.012;2022-08-24T11:14:01;7.10;;;4.37;;
3629;SDS011;1831;53.626;10.012;2022-08-24T11:16:32;11.10;;;4.40;;
3629;SDS011;1831;53.626;10.012;2022-08-24T11:19:01;12.40;;;4.20;;
3629;SDS011;1831;53.626;10.012;2022-08-24T11:21:39;7.40;;;4.33;;
3629;SDS011;1831;53.626;10.012;2022-08-24T11:24:26;9.20;;;4.00;;
3629;SDS011;1831;53.626;10.012;2022-08-24T11:27:05;6.00;;;3.90;;
3629;SDS011;1831;53.626;10.012;2022-08-24T11:29:55;7.07;;;4.67;;
3629;SDS011;1831;53.626;10.012;2022-08-24T11:32:25;6.50;;;4.13;;
3629;SDS011;1831;53.626;10.012;2022-08-24T11:34:54;6.50;;;3.93;;
3629;SDS011;1831;53.626;10.012;2022-08-24T11:37:29;5.90;;;3.87;;
3629;SDS011;1831;53.626;10.012;2022-08-24T11:39:58;6.33;;;3.40;;
3629;SDS011;1831;53.626;10.012;2022-08-24T11:42:35;8.47;;;3.63;;
3629;SDS011;1831;53.626;10.012;2022-08-24T11:45:18;8.57;;;3.50;;
3629;SDS011;1831;53.626;10.012;2022-08-24T11:47:55;8.10;;;4.00;;
3629;SDS011;1831;53.626;10.012;2022-08-24T11:50:32;9.57;;;4.50;;
3629;SDS011;1831;53.626;10.012;2022-08-24T11:53:08;5.30;;;3.50;;
3629;SDS011;1831;53.626;10.012;2022-08-24T11:55:48;12.93;;;4.03;;
3629;SDS011;1831;53.626;10.012;2022-08-24T11:58:27;6.30;;;3.73;;
3629;SDS011;1831;53.626;10.012;2022-08-24T12:01:05;6.70;;;3.70;;
3629;SDS011;1831;53.626;10.012;2022-08-24T12:03:41;6.07;;;3.87;;
3629;SDS011;1831;53.626;10.012;2022-08-24T12:06:17;9.77;;;3.83;;
3629;SDS011;1831;53.626;10.012;2022-08-24T12:08:57;7.20;;;3.53;;
3629;SDS011;1831;53.626;10.012;2022-08-24T12:11:31;9.23;;;3.97;;
3629;SDS011;1831;53.626;10.012;2022-08-24T12:14:09;6.60;;;3.50;;
3629;SDS011;1831;53.626;10.012;2022-08-24T12:16:47;8.67;;;3.80;;
3629;SDS011;1831;53.626;10.012;2022-08-24T12:19:20;6.57;;;4.03;;
3629;SDS011;1831;53.626;10.012;2022-08-24T12:21:53;6.80;;;4.60;;
3629;SDS011;1831;53.626;10.012;2022-08-24T12:24:25;13.00;;;3.90;;
3629;SDS011;1831;53.626;10.012;2022-08-24T12:27:00;12.13;;;3.83;;
3629;SDS011;1831;53.626;10.012;2022-08-24T12:29:33;8.37;;;3.80;;
3629;SDS011;1831;53.626;10.012;2022-08-24T12:32:07;6.20;;;3.63;;
3629;SDS011;1831;53.626;10.012;2022-08-24T12:34:41;5.10;;;3.30;;
3629;SDS011;1831;53.626;10.012;2022-08-24T12:37:18;7.10;;;3.90;;
3629;SDS011;1831;53.626;10.012;2022-08-24T12:39:51;15.23;;;7.40;;
3629;SDS011;1831;53.626;10.012;2022-08-24T12:42:27;8.17;;;3.63;;
3629;SDS011;1831;53.626;10.012;2022-08-24T12:45:00;9.53;;;4.63;;
3629;SDS011;1831;53.626;10.012;2022-08-24T12:47:32;5.97;;;3.50;;
3629;SDS011;1831;53.626;10.012;2022-08-24T12:50:04;7.50;;;3.90;;
3629;SDS011;1831;53.626;10.012;2022-08-24T12:52:57;7.70;;;4.40;;
3629;SDS011;1831;53.626;10.012;2022-08-24T12:56:01;5.57;;;3.40;;
3629;SDS011;1831;53.626;10.012;2022-08-24T13:01:26;6.33;;;3.80;;
3629;SDS011;1831;53.626;10.012;2022-08-24T13:04:10;5.23;;;3.50;;
3629;SDS011;1831;53.626;10.012;2022-08-24T13:06:41;4.77;;;3.50;;
3629;SDS011;1831;53.626;10.012;2022-08-24T13:09:16;5.00;;;3.43;;
3629;SDS011;1831;53.626;10.012;2022-08-24T13:11:54;7.70;;;3.37;;
3629;SDS011;1831;53.626;10.012;2022-08-24T13:14:23;7.40;;;4.03;;
3629;SDS011;1831;53.626;10.012;2022-08-24T13:19:37;6.53;;;3.30;;
3629;SDS011;1831;53.626;10.012;2022-08-24T13:25:22;6.80;;;3.90;;
3629;SDS011;1831;53.626;10.012;2022-08-24T13:28:01;5.47;;;3.53;;
3629;SDS011;1831;53.626;10.012;2022-08-24T13:33:33;11.20;;;2.93;;
3629;SDS011;1831;53.626;10.012;2022-08-24T13:36:33;5.60;;;2.90;;
3629;SDS011;1831;53.626;10.012;2022-08-24T13:39:09;6.17;;;4.70;;
3629;SDS011;1831;53.626;10.012;2022-08-24T13:41:45;5.93;;;3.70;;
3629;SDS011;1831;53.626;10.012;2022-08-24T13:44:26;6.77;;;3.60;;
3629;SDS011;1831;53.626;10.012;2022-08-24T13:47:09;12.00;;;3.37;;
3629;SDS011;1831;53.626;10.012;2022-08-24T13:49:45;6.47;;;3.33;;
3629;SDS011;1831;53.626;10.012;2022-08-24T13:52:21;4.70;;;3.00;;
3629;SDS011;1831;53.626;10.012;2022-08-24T13:55:05;5.03;;;2.90;;
3629;SDS011;1831;53.626;10.012;2022-08-24T13:57:40;9.20;;;3.10;;
3629;SDS011;1831;53.626;10.012;2022-08-24T14:00:29;6.53;;;3.00;;
3629;SDS011;1831;53.626;10.012;2022-08-24T14:03:08;5.90;;;2.57;;
3629;SDS011;1831;53.626;10.012;2022-08-24T14:05:50;4.60;;;2.83;;
3629;SDS011;1831;53.626;10.012;2022-08-24T14:08:26;5.10;;;3.00;;
3629;SDS011;1831;53.626;10.012;2022-08-24T14:11:06;5.77;;;3.30;;
3629;SDS011;1831;53.626;10.012;2022-08-24T14:13:41;6.50;;;3.97;;
3629;SDS011;1831;53.626;10.012;2022-08-24T14:16:27;8.13;;;3.53;;
3629;SDS011;1831;53.626;10.012;2022-08-24T14:19:25;3.60;;;2.17;;
3629;SDS011;1831;53.626;10.012;2022-08-24T14:22:04;5.77;;;3.00;;
3629;SDS011;1831;53.626;10.012;2022-08-24T14:24:45;8.10;;;2.43;;
3629;SDS011;1831;53.626;10.012;2022-08-24T14:27:37;5.20;;;2.60;;
3629;SDS011;1831;53.626;10.012;2022-08-24T14:33:13;4.00;;;2.40;;
3629;SDS011;1831;53.626;10.012;2022-08-24T14:36:01;5.70;;;2.80;;
3629;SDS011;1831;53.626;10.012;2022-08-24T14:41:40;7.87;;;3.00;;
3629;SDS011;1831;53.626;10.012;2022-08-24T14:44:27;3.90;;;2.50;;
3629;SDS011;1831;53.626;10.012;2022-08-24T14:47:20;4.60;;;2.37;;
3629;SDS011;1831;53.626;10.012;2022-08-24T14:50:00;5.53;;;3.50;;
3629;SDS011;1831;53.626;10.012;2022-08-24T14:52:45;3.43;;;2.43;;
3629;SDS011;1831;53.626;10.012;2022-08-24T14:55:28;8.87;;;3.10;;
3629;SDS011;1831;53.626;10.012;2022-08-24T14:58:05;3.80;;;2.60;;
3629;SDS011;1831;53.626;10.012;2022-08-24T15:03:55;7.80;;;3.90;;
3629;SDS011;1831;53.626;10.012;2022-08-24T15:06:30;5.17;;;3.17;;
3629;SDS011;1831;53.626;10.012;2022-08-24T15:09:07;5.60;;;2.70;;
3629;SDS011;1831;53.626;10.012;2022-08-24T15:11:36;4.30;;;2.57;;
3629;SDS011;1831;53.626;10.012;2022-08-24T15:14:08;4.27;;;2.20;;
3629;SDS011;1831;53.626;10.012;2022-08-24T15:16:45;6.53;;;2.70;;
3629;SDS011;1831;53.626;10.012;2022-08-24T15:19:17;3.87;;;2.73;;
3629;SDS011;1831;53.626;10.012;2022-08-24T15:21:51;6.97;;;2.50;;
3629;SDS011;1831;53.626;10.012;2022-08-24T15:24:28;4.33;;;2.40;;
3629;SDS011;1831;53.626;10.012;2022-08-24T15:27:06;7.37;;;2.70;;
3629;SDS011;1831;53.626;10.012;2022-08-24T15:29:47;5.50;;;2.87;;
3629;SDS011;1831;53.626;10.012;2022-08-24T15:32:18;7.07;;;3.40;;
3629;SDS011;1831;53.626;10.012;2022-08-24T15:34:47;4.07;;;3.00;;
3629;SDS011;1831;53.626;10.012;2022-08-24T15:37:24;4.30;;;2.73;;
3629;SDS011;1831;53.626;10.012;2022-08-24T15:39:52;5.20;;;2.67;;
3629;SDS011;1831;53.626;10.012;2022-08-24T15:42:19;4.00;;;2.63;;
3629;SDS011;1831;53.626;10.012;2022-08-24T15:44:48;6.33;;;2.67;;
3629;SDS011;1831;53.626;10.012;2022-08-24T15:47:21;8.00;;;3.33;;
3629;SDS011;1831;53.626;10.012;2022-08-24T15:49:51;5.40;;;2.57;;
3629;SDS011;1831;53.626;10.012;2022-08-24T15:52:35;5.43;;;3.20;;
3629;SDS011;1831;53.626;10.012;2022-08-24T15:55:06;5.17;;;2.60;;
3629;SDS011;1831;53.626;10.012;2022-08-24T15:57:40;7.53;;;2.87;;
3629;SDS011;1831;53.626;10.012;2022-08-24T16:00:16;5.10;;;2.90;;
3629;SDS011;1831;53.626;10.012;2022-08-24T16:03:18;5.73;;;3.00;;
3629;SDS011;1831;53.626;10.012;2022-08-24T16:05:46;4.33;;;2.77;;
3629;SDS011;1831;53.626;10.012;2022-08-24T16:08:13;5.63;;;2.87;;
3629;SDS011;1831;53.626;10.012;2022-08-24T16:10:41;6.50;;;3.87;;
3629;SDS011;1831;53.626;10.012;2022-08-24T16:13:22;6.43;;;3.30;;
3629;SDS011;1831;53.626;10.012;2022-08-24T16:15:55;5.23;;;3.00;;
3629;SDS011;1831;53.626;10.012;2022-08-24T16:18:27;5.70;;;3.67;;